createdAt,value
2018-02-11T00:00:44.767Z,2.68
2018-02-11T00:01:45.177Z,2.71
2018-02-11T00:02:45.599Z,2.71
2018-02-11T00:03:46.013Z,2.72
2018-02-11T00:04:46.443Z,2.71
2018-02-11T00:05:46.853Z,2.72
2018-02-11T00:06:47.280Z,2.82
2018-02-11T00:07:47.694Z,2.80
2018-02-11T00:08:48.123Z,2.83
2018-02-11T00:09:48.536Z,2.75
2018-02-11T00:10:48.952Z,2.68
2018-02-11T00:11:49.376Z,2.65
2018-02-11T00:12:49.794Z,2.69
2018-02-11T00:13:50.209Z,2.56
2018-02-11T00:14:50.631Z,2.64
2018-02-11T00:15:51.052Z,2.50
2018-02-11T00:16:51.472Z,2.56
2018-02-11T00:17:51.901Z,2.53
2018-02-11T00:18:52.311Z,2.57
2018-02-11T00:19:52.733Z,2.53
2018-02-11T00:20:53.159Z,2.50
2018-02-11T00:21:53.570Z,2.49
2018-02-11T00:22:53.989Z,2.60
2018-02-11T00:23:54.406Z,2.57
2018-02-11T00:24:54.827Z,2.54
2018-02-11T00:25:55.249Z,2.51
2018-02-11T00:26:55.665Z,2.56
2018-02-11T00:27:56.084Z,2.49
2018-02-11T00:28:56.507Z,2.71
2018-02-11T00:29:56.946Z,2.67
2018-02-11T00:30:57.355Z,2.75
2018-02-11T00:31:57.768Z,2.83
2018-02-11T00:32:58.184Z,2.80
2018-02-11T00:33:58.604Z,2.85
2018-02-11T00:34:59.022Z,2.93
2018-02-11T00:35:59.444Z,2.98
2018-02-11T00:36:59.867Z,2.90
2018-02-11T00:38:00.278Z,2.93
2018-02-11T00:39:00.701Z,2.87
2018-02-11T00:40:01.129Z,2.83
2018-02-11T00:41:01.544Z,2.82
2018-02-11T00:42:01.960Z,2.89
2018-02-11T00:43:02.383Z,2.83
2018-02-11T00:44:02.801Z,2.80
2018-02-11T00:45:03.217Z,2.82
2018-02-11T00:46:03.637Z,2.85
2018-02-11T00:47:04.058Z,2.79
2018-02-11T00:48:04.479Z,2.80
2018-02-11T00:49:04.915Z,2.80
2018-02-11T00:50:05.325Z,2.79
2018-02-11T00:51:05.739Z,2.85
2018-02-11T00:52:06.177Z,2.75
2018-02-11T00:53:06.582Z,2.68
2018-02-11T00:54:06.994Z,2.67
2018-02-11T00:55:07.417Z,2.71
2018-02-11T00:56:07.833Z,2.71
2018-02-11T00:57:08.260Z,2.69
2018-02-11T00:58:08.671Z,2.72
2018-02-11T00:59:09.098Z,2.71
2018-02-11T01:00:09.515Z,2.71
2018-02-11T01:01:09.935Z,2.74
2018-02-11T01:02:10.350Z,2.69
2018-02-11T01:03:10.773Z,2.67
2018-02-11T01:04:11.199Z,2.67
2018-02-11T01:05:11.612Z,2.68
2018-02-11T01:06:12.030Z,2.69
2018-02-11T01:07:12.449Z,2.65
2018-02-11T01:08:12.866Z,2.65
2018-02-11T01:09:13.289Z,2.72
2018-02-11T01:10:13.706Z,2.71
2018-02-11T01:11:14.129Z,2.69
2018-02-11T01:12:14.546Z,2.74
2018-02-11T01:13:14.966Z,2.85
2018-02-11T01:14:15.384Z,2.82
2018-02-11T01:15:15.807Z,2.86
2018-02-11T01:16:16.231Z,2.86
2018-02-11T01:17:16.645Z,2.93
2018-02-11T01:18:17.063Z,2.82
2018-02-11T01:19:17.486Z,2.83
2018-02-11T01:20:17.911Z,2.82
2018-02-11T01:21:18.328Z,2.79
2018-02-11T01:22:18.745Z,2.71
2018-02-11T01:23:19.164Z,2.72
2018-02-11T01:24:19.583Z,2.71
2018-02-11T01:25:20.004Z,2.71
2018-02-11T01:26:20.428Z,2.75
2018-02-11T01:27:20.847Z,-40.00
2018-02-11T01:28:21.261Z,-40.00
2018-02-11T01:29:21.681Z,-40.00
2018-02-11T01:30:22.104Z,-40.00
2018-02-11T01:31:22.520Z,-40.00
2018-02-11T01:32:22.945Z,-40.00
2018-02-11T01:33:23.362Z,-40.00
2018-02-11T01:34:25.248Z,-40.00
2018-02-11T01:35:24.203Z,-40.00
2018-02-11T01:36:24.624Z,-40.00
2018-02-11T01:37:25.045Z,-40.00
2018-02-11T01:38:25.462Z,-40.00
2018-02-11T01:39:25.881Z,-40.00
2018-02-11T01:40:26.302Z,-40.00
2018-02-11T01:41:26.720Z,-40.00
2018-02-11T01:42:27.140Z,-40.00
2018-02-11T01:43:27.566Z,-40.00
2018-02-11T01:44:27.983Z,-40.00
2018-02-11T01:45:28.400Z,-40.00
2018-02-11T01:46:28.839Z,-40.00
2018-02-11T01:47:29.239Z,-40.00
2018-02-11T01:48:29.662Z,2.71
2018-02-11T01:49:30.079Z,-40.00
2018-02-11T01:50:30.504Z,2.68
2018-02-11T01:51:30.919Z,2.71
2018-02-11T01:52:31.339Z,2.71
2018-02-11T01:53:31.757Z,2.65
2018-02-11T01:54:32.175Z,2.71
2018-02-11T01:55:32.602Z,2.74
2018-02-11T01:56:33.024Z,2.74
2018-02-11T01:57:33.445Z,2.74
2018-02-11T01:58:33.859Z,2.85
2018-02-11T01:59:34.278Z,2.79
2018-02-11T02:00:34.698Z,-40.00
2018-02-11T02:01:35.136Z,-40.00
2018-02-11T02:02:35.538Z,-40.00
2018-02-11T02:03:35.960Z,2.72
2018-02-11T02:04:36.373Z,2.82
2018-02-11T02:05:36.798Z,2.83
2018-02-11T02:06:37.216Z,2.74
2018-02-11T02:07:37.637Z,2.83
2018-02-11T02:08:38.063Z,2.79
2018-02-11T02:09:38.478Z,2.87
2018-02-11T02:10:38.898Z,2.82
2018-02-11T02:11:39.321Z,2.68
2018-02-11T02:12:39.732Z,2.74
2018-02-11T02:13:40.152Z,2.68
2018-02-11T02:14:40.576Z,2.61
2018-02-11T02:15:40.991Z,2.71
2018-02-11T02:16:41.417Z,2.61
2018-02-11T02:17:41.838Z,-40.00
2018-02-11T02:18:42.261Z,-40.00
2018-02-11T02:19:42.677Z,-40.00
2018-02-11T02:20:43.103Z,-40.00
2018-02-11T02:21:43.519Z,2.51
2018-02-11T02:22:43.935Z,2.53
2018-02-11T02:23:44.362Z,2.57
2018-02-11T02:24:44.771Z,2.51
2018-02-11T02:25:45.188Z,2.62
2018-02-11T02:26:45.611Z,2.65
2018-02-11T02:27:46.032Z,2.54
2018-02-11T02:28:46.452Z,2.56
2018-02-11T02:29:46.871Z,2.50
2018-02-11T02:30:47.291Z,2.47
2018-02-11T02:31:47.708Z,2.47
2018-02-11T02:32:48.130Z,2.47
2018-02-11T02:33:48.555Z,2.43
2018-02-11T02:34:48.963Z,-40.00
2018-02-11T02:35:49.387Z,2.49
2018-02-11T02:36:49.808Z,2.50
2018-02-11T02:37:50.227Z,2.49
2018-02-11T02:38:50.642Z,2.56
2018-02-11T02:39:51.097Z,2.53
2018-02-11T02:40:51.485Z,2.57
2018-02-11T02:41:51.908Z,2.47
2018-02-11T02:42:52.325Z,2.44
2018-02-11T02:43:52.751Z,2.46
2018-02-11T02:44:53.163Z,2.51
2018-02-11T02:45:53.583Z,2.53
2018-02-11T02:46:54.002Z,2.56
2018-02-11T02:47:54.422Z,2.51
2018-02-11T02:48:54.842Z,2.57
2018-02-11T02:49:55.292Z,2.54
2018-02-11T02:50:55.681Z,2.53
2018-02-11T02:51:56.103Z,2.47
2018-02-11T02:52:56.518Z,2.50
2018-02-11T02:53:56.960Z,2.43
2018-02-11T02:54:57.365Z,2.33
2018-02-11T02:55:57.781Z,2.42
2018-02-11T02:56:58.195Z,2.32
2018-02-11T02:57:58.617Z,-40.00
2018-02-11T02:58:59.036Z,-40.00
2018-02-11T02:59:59.458Z,-40.00
2018-02-11T03:00:59.874Z,-40.00
2018-02-11T03:02:00.299Z,-40.00
2018-02-11T03:03:00.719Z,-40.00
2018-02-11T03:04:01.133Z,-40.00
2018-02-11T03:05:01.551Z,-40.00
2018-02-11T03:06:01.974Z,-40.00
2018-02-11T03:07:02.393Z,-40.00
2018-02-11T03:08:02.809Z,-40.00
2018-02-11T03:09:03.236Z,-40.00
2018-02-11T03:10:03.649Z,-40.00
2018-02-11T03:11:04.071Z,-40.00
2018-02-11T03:12:04.488Z,-40.00
2018-02-11T03:13:04.906Z,-40.00
2018-02-11T03:14:05.327Z,-40.00
2018-02-11T03:15:05.746Z,-40.00
2018-02-11T03:16:06.166Z,-40.00
2018-02-11T03:17:06.585Z,-40.00
2018-02-11T03:18:07.004Z,-40.00
2018-02-11T03:19:07.422Z,-40.00
2018-02-11T03:20:07.842Z,-40.00
2018-02-11T03:21:08.261Z,-40.00
2018-02-11T03:22:08.686Z,-40.00
2018-02-11T03:23:09.105Z,-40.00
2018-02-11T03:24:09.527Z,-40.00
2018-02-11T03:25:09.942Z,-40.00
2018-02-11T03:26:10.359Z,2.62
2018-02-11T03:27:10.781Z,2.57
2018-02-11T03:28:11.195Z,2.65
2018-02-11T03:29:11.615Z,2.65
2018-02-11T03:30:12.082Z,2.71
2018-02-11T03:31:12.464Z,2.65
2018-02-11T03:32:12.878Z,2.53
2018-02-11T03:33:13.296Z,2.53
2018-02-11T03:34:13.715Z,2.43
2018-02-11T03:35:14.143Z,2.57
2018-02-11T03:36:14.554Z,2.56
2018-02-11T03:37:14.976Z,2.57
2018-02-11T03:38:15.394Z,2.57
2018-02-11T03:39:15.813Z,2.46
2018-02-11T03:40:16.234Z,2.49
2018-02-11T03:41:16.654Z,2.53
2018-02-11T03:42:17.081Z,2.49
2018-02-11T03:43:17.493Z,2.39
2018-02-11T03:44:17.910Z,2.47
2018-02-11T03:45:18.331Z,2.46
2018-02-11T03:46:18.746Z,2.42
2018-02-11T03:47:19.169Z,2.42
2018-02-11T03:48:19.588Z,2.43
2018-02-11T03:49:20.011Z,2.38
2018-02-11T03:50:20.425Z,2.32
2018-02-11T03:51:20.849Z,2.39
2018-02-11T03:52:21.265Z,2.35
2018-02-11T03:53:21.685Z,2.38
2018-02-11T03:54:22.115Z,2.36
2018-02-11T03:55:22.538Z,2.33
2018-02-11T03:56:22.945Z,2.36
2018-02-11T03:57:23.365Z,2.31
2018-02-11T03:58:23.783Z,2.29
2018-02-11T03:59:24.199Z,2.24
2018-02-11T04:00:24.622Z,2.33
2018-02-11T04:01:25.041Z,2.20
2018-02-11T04:02:25.460Z,2.32
2018-02-11T04:03:25.876Z,2.20
2018-02-11T04:04:26.296Z,2.24
2018-02-11T04:05:26.719Z,2.20
2018-02-11T04:06:27.141Z,2.24
2018-02-11T04:07:27.557Z,2.22
2018-02-11T04:08:27.978Z,2.24
2018-02-11T04:09:28.394Z,2.24
2018-02-11T04:10:28.818Z,2.33
2018-02-11T04:11:29.231Z,2.22
2018-02-11T04:12:29.649Z,2.17
2018-02-11T04:13:30.072Z,2.26
2018-02-11T04:14:30.488Z,2.18
2018-02-11T04:15:30.907Z,2.18
2018-02-11T04:16:31.351Z,2.32
2018-02-11T04:17:31.747Z,2.28
2018-02-11T04:18:32.164Z,2.36
2018-02-11T04:19:32.581Z,2.33
2018-02-11T04:20:33.001Z,2.26
2018-02-11T04:21:33.468Z,2.33
2018-02-11T04:22:33.839Z,2.31
2018-02-11T04:23:34.261Z,2.32
2018-02-11T04:24:34.679Z,2.35
2018-02-11T04:25:35.098Z,2.28
2018-02-11T04:26:35.520Z,2.20
2018-02-11T04:27:35.939Z,2.22
2018-02-11T04:28:36.354Z,2.28
2018-02-11T04:29:36.782Z,2.20
2018-02-11T04:30:37.197Z,2.32
2018-02-11T04:31:37.611Z,2.29
2018-02-11T04:32:38.033Z,2.26
2018-02-11T04:33:38.451Z,2.32
2018-02-11T04:34:38.868Z,2.32
2018-02-11T04:35:39.297Z,2.32
2018-02-11T04:36:39.710Z,2.32
2018-02-11T04:37:40.131Z,2.25
2018-02-11T04:38:40.548Z,2.31
2018-02-11T04:39:40.982Z,2.36
2018-02-11T04:40:41.390Z,2.28
2018-02-11T04:41:41.805Z,2.26
2018-02-11T04:42:42.228Z,2.32
2018-02-11T04:43:42.640Z,2.32
2018-02-11T04:44:43.060Z,2.36
2018-02-11T04:45:43.481Z,2.33
2018-02-11T04:46:43.906Z,2.29
2018-02-11T04:47:44.318Z,2.38
2018-02-11T04:48:44.750Z,2.33
2018-02-11T04:49:45.159Z,2.35
2018-02-11T04:50:45.578Z,2.39
2018-02-11T04:51:46.029Z,2.35
2018-02-11T04:52:46.419Z,2.36
2018-02-11T04:53:46.834Z,2.32
2018-02-11T04:54:47.254Z,2.39
2018-02-11T04:55:47.673Z,2.32
2018-02-11T04:56:48.091Z,2.36
2018-02-11T04:57:48.509Z,2.43
2018-02-11T04:58:49.024Z,2.43
2018-02-11T04:59:49.355Z,2.31
2018-02-11T05:00:49.772Z,2.49
2018-02-11T05:01:50.190Z,2.51
2018-02-11T05:02:50.610Z,2.46
2018-02-11T05:03:51.027Z,2.53
2018-02-11T05:04:51.449Z,2.46
2018-02-11T05:05:51.869Z,2.46
2018-02-11T05:06:52.284Z,2.42
2018-02-11T05:07:52.706Z,2.44
2018-02-11T05:08:53.126Z,2.49
2018-02-11T05:09:53.546Z,2.49
2018-02-11T05:10:53.964Z,2.39
2018-02-11T05:11:54.388Z,2.49
2018-02-11T05:12:54.804Z,2.47
2018-02-11T05:13:55.227Z,2.46
2018-02-11T05:14:55.646Z,2.46
2018-02-11T05:15:56.066Z,2.51
2018-02-11T05:16:56.482Z,2.50
2018-02-11T05:17:56.899Z,2.51
2018-02-11T05:18:57.320Z,2.51
2018-02-11T05:19:57.737Z,2.61
2018-02-11T05:20:58.157Z,2.47
2018-02-11T05:21:58.585Z,2.49
2018-02-11T05:22:59.013Z,2.49
2018-02-11T05:23:59.416Z,2.51
2018-02-11T05:24:59.843Z,2.54
2018-02-11T05:26:00.258Z,2.57
2018-02-11T05:27:00.678Z,2.51
2018-02-11T05:28:01.110Z,2.65
2018-02-11T05:29:01.513Z,2.54
2018-02-11T05:30:01.936Z,2.54
2018-02-11T05:31:02.358Z,2.49
2018-02-11T05:32:02.772Z,2.51
2018-02-11T05:33:03.195Z,2.49
2018-02-11T05:34:03.609Z,2.44
2018-02-11T05:35:04.084Z,2.46
2018-02-11T05:36:04.456Z,2.54
2018-02-11T05:37:04.904Z,2.50
2018-02-11T05:38:05.295Z,2.56
2018-02-11T05:39:05.712Z,2.46
2018-02-11T05:40:06.131Z,2.51
2018-02-11T05:41:06.547Z,2.49
2018-02-11T05:42:06.968Z,2.61
2018-02-11T05:43:07.414Z,2.56
2018-02-11T05:44:07.803Z,2.57
2018-02-11T05:45:08.225Z,2.51
2018-02-11T05:46:08.656Z,2.56
2018-02-11T05:47:09.073Z,2.57
2018-02-11T05:48:09.543Z,2.50
2018-02-11T05:49:09.906Z,2.57
2018-02-11T05:50:10.332Z,2.54
2018-02-11T05:51:10.744Z,2.61
2018-02-11T05:52:11.163Z,2.60
2018-02-11T05:53:11.582Z,2.60
2018-02-11T05:54:11.997Z,2.62
2018-02-11T05:55:12.416Z,2.60
2018-02-11T05:56:12.847Z,2.62
2018-02-11T05:57:13.268Z,2.62
2018-02-11T05:58:13.679Z,2.72
2018-02-11T05:59:14.095Z,2.69
2018-02-11T06:00:14.534Z,2.72
2018-02-11T06:01:14.937Z,2.68
2018-02-11T06:02:15.361Z,2.69
2018-02-11T06:03:15.775Z,2.71
2018-02-11T06:04:16.197Z,2.71
2018-02-11T06:05:16.621Z,2.71
2018-02-11T06:06:17.035Z,2.68
2018-02-11T06:07:17.463Z,2.72
2018-02-11T06:08:17.883Z,2.71
2018-02-11T06:09:18.293Z,2.68
2018-02-11T06:10:18.720Z,2.69
2018-02-11T06:11:19.138Z,2.69
2018-02-11T06:12:19.547Z,2.68
2018-02-11T06:13:19.971Z,2.68
2018-02-11T06:14:20.387Z,2.68
2018-02-11T06:15:20.810Z,2.68
2018-02-11T06:16:21.227Z,2.77
2018-02-11T06:17:21.646Z,2.75
2018-02-11T06:18:22.068Z,2.82
2018-02-11T06:19:22.487Z,2.79
2018-02-11T06:20:22.907Z,2.85
2018-02-11T06:21:23.323Z,2.83
2018-02-11T06:22:23.742Z,2.80
2018-02-11T06:23:24.164Z,2.79
2018-02-11T06:24:24.587Z,2.83
2018-02-11T06:25:25.005Z,2.75
2018-02-11T06:26:25.423Z,2.77
2018-02-11T06:27:25.840Z,2.85
2018-02-11T06:28:26.258Z,2.83
2018-02-11T06:29:26.686Z,2.82
2018-02-11T06:30:27.102Z,2.83
2018-02-11T06:31:27.519Z,2.83
2018-02-11T06:32:27.938Z,2.85
2018-02-11T06:33:28.357Z,2.83
2018-02-11T06:34:28.779Z,2.86
2018-02-11T06:35:29.197Z,2.85
2018-02-11T06:36:29.619Z,2.87
2018-02-11T06:37:30.041Z,2.83
2018-02-11T06:38:30.455Z,2.86
2018-02-11T06:39:30.875Z,2.86
2018-02-11T06:40:31.300Z,2.82
2018-02-11T06:41:31.718Z,2.87
2018-02-11T06:42:32.154Z,2.92
2018-02-11T06:43:32.574Z,2.93
2018-02-11T06:44:32.977Z,2.86
2018-02-11T06:45:33.391Z,2.82
2018-02-11T06:46:33.818Z,3.03
2018-02-11T06:47:34.237Z,2.87
2018-02-11T06:48:34.660Z,2.92
2018-02-11T06:49:35.070Z,3.00
2018-02-11T06:50:35.491Z,2.95
2018-02-11T06:51:35.908Z,2.93
2018-02-11T06:52:36.333Z,2.86
2018-02-11T06:53:36.752Z,3.03
2018-02-11T06:54:37.170Z,2.92
2018-02-11T06:55:37.587Z,2.90
2018-02-11T06:56:38.009Z,2.85
2018-02-11T06:57:38.426Z,2.90
2018-02-11T06:58:38.848Z,2.87
2018-02-11T06:59:39.272Z,2.95
2018-02-11T07:00:39.691Z,2.97
2018-02-11T07:01:40.115Z,3.03
2018-02-11T07:02:40.525Z,2.87
2018-02-11T07:03:40.947Z,2.93
2018-02-11T07:04:41.372Z,2.92
2018-02-11T07:05:41.784Z,2.92
2018-02-11T07:06:42.205Z,2.92
2018-02-11T07:07:42.623Z,2.98
2018-02-11T07:08:43.042Z,2.98
2018-02-11T07:09:43.462Z,3.01
2018-02-11T07:10:43.886Z,3.04
2018-02-11T07:11:44.307Z,2.97
2018-02-11T07:12:44.729Z,2.95
2018-02-11T07:13:45.144Z,2.98
2018-02-11T07:14:45.561Z,2.93
2018-02-11T07:15:45.986Z,3.05
2018-02-11T07:16:46.400Z,3.14
2018-02-11T07:17:46.819Z,3.05
2018-02-11T07:18:47.257Z,3.07
2018-02-11T07:19:47.663Z,3.07
2018-02-11T07:20:48.079Z,3.08
2018-02-11T07:21:48.501Z,3.05
2018-02-11T07:22:48.955Z,3.08
2018-02-11T07:23:49.339Z,3.08
2018-02-11T07:24:49.759Z,3.01
2018-02-11T07:25:50.178Z,3.13
2018-02-11T07:26:50.597Z,3.08
2018-02-11T07:27:51.017Z,3.21
2018-02-11T07:28:51.434Z,3.11
2018-02-11T07:29:51.856Z,3.11
2018-02-11T07:30:52.282Z,3.21
2018-02-11T07:31:52.696Z,3.14
2018-02-11T07:32:53.119Z,3.14
2018-02-11T07:33:53.533Z,3.05
2018-02-11T07:34:53.955Z,3.10
2018-02-11T07:35:54.373Z,3.14
2018-02-11T07:36:54.796Z,3.14
2018-02-11T07:37:55.220Z,3.28
2018-02-11T07:38:55.633Z,3.37
2018-02-11T07:39:56.053Z,3.41
2018-02-11T07:40:56.480Z,3.44
2018-02-11T07:41:56.895Z,3.55
2018-02-11T07:42:57.316Z,3.40
2018-02-11T07:43:57.733Z,3.45
2018-02-11T07:44:58.156Z,3.50
2018-02-11T07:45:58.574Z,3.50
2018-02-11T07:46:58.994Z,3.51
2018-02-11T07:47:59.413Z,3.56
2018-02-11T07:48:59.831Z,3.66
2018-02-11T07:50:00.263Z,3.63
2018-02-11T07:51:00.680Z,3.74
2018-02-11T07:52:01.099Z,3.78
2018-02-11T07:53:01.528Z,3.76
2018-02-11T07:54:01.960Z,3.73
2018-02-11T07:55:02.376Z,3.86
2018-02-11T07:56:02.800Z,3.88
2018-02-11T07:57:03.218Z,3.88
2018-02-11T07:58:03.634Z,3.92
2018-02-11T07:59:04.081Z,3.94
2018-02-11T08:00:04.477Z,3.98
2018-02-11T08:01:04.891Z,3.94
2018-02-11T08:02:05.308Z,4.01
2018-02-11T08:03:05.727Z,3.91
2018-02-11T08:04:06.168Z,3.95
2018-02-11T08:05:06.583Z,3.88
2018-02-11T08:06:06.989Z,3.68
2018-02-11T08:07:07.471Z,3.84
2018-02-11T08:08:07.835Z,3.77
2018-02-11T08:09:08.301Z,3.77
2018-02-11T08:10:08.683Z,3.80
2018-02-11T08:11:09.157Z,3.73
2018-02-11T08:12:09.558Z,3.69
2018-02-11T08:13:09.956Z,3.65
2018-02-11T08:14:10.377Z,3.66
2018-02-11T08:15:10.779Z,3.68
2018-02-11T08:16:11.201Z,3.63
2018-02-11T08:17:11.644Z,3.73
2018-02-11T08:18:12.045Z,3.62
2018-02-11T08:19:12.468Z,3.60
2018-02-11T08:20:12.885Z,3.53
2018-02-11T08:21:13.299Z,3.62
2018-02-11T08:22:13.721Z,3.60
2018-02-11T08:23:14.140Z,3.60
2018-02-11T08:24:14.561Z,3.65
2018-02-11T08:25:14.985Z,3.62
2018-02-11T08:26:15.497Z,3.62
2018-02-11T08:27:15.817Z,3.66
2018-02-11T08:28:16.243Z,3.56
2018-02-11T08:29:16.688Z,3.62
2018-02-11T08:30:17.098Z,3.58
2018-02-11T08:31:17.520Z,3.62
2018-02-11T08:32:17.930Z,3.73
2018-02-11T08:33:18.350Z,3.69
2018-02-11T08:34:18.768Z,3.81
2018-02-11T08:35:19.194Z,3.73
2018-02-11T08:36:19.614Z,3.91
2018-02-11T08:37:20.040Z,3.94
2018-02-11T08:38:20.448Z,3.94
2018-02-11T08:39:20.913Z,3.98
2018-02-11T08:40:21.297Z,3.98
2018-02-11T08:41:21.715Z,3.91
2018-02-11T08:42:22.132Z,3.99
2018-02-11T08:43:22.555Z,3.99
2018-02-11T08:44:22.975Z,3.98
2018-02-11T08:45:23.404Z,3.92
2018-02-11T08:46:23.826Z,3.98
2018-02-11T08:47:24.235Z,3.87
2018-02-11T08:48:24.657Z,3.87
2018-02-11T08:49:25.080Z,3.87
2018-02-11T08:50:25.507Z,3.87
2018-02-11T08:53:00.046Z,3.92
2018-02-11T08:54:00.465Z,3.96
2018-02-11T08:55:56.047Z,3.87
2018-02-11T08:56:56.457Z,3.95
2018-02-11T08:58:51.076Z,3.91
2018-02-11T08:59:51.456Z,3.86
2018-02-11T09:01:46.046Z,3.98
2018-02-11T09:02:46.480Z,3.96
2018-02-11T09:04:42.077Z,4.01
2018-02-11T09:05:42.467Z,4.10
2018-02-11T09:07:37.069Z,4.35
2018-02-11T09:08:37.475Z,4.28
2018-02-11T09:10:32.098Z,4.62
2018-02-11T09:11:32.478Z,4.42
2018-02-11T09:13:27.070Z,4.58
2018-02-11T09:14:27.529Z,4.55
2018-02-11T09:16:22.130Z,4.32
2018-02-11T09:17:22.502Z,4.34
2018-02-11T09:19:17.157Z,4.41
2018-02-11T09:20:17.575Z,4.48
2018-02-11T09:22:12.469Z,4.55
2018-02-11T09:23:12.783Z,4.38
2018-02-11T09:24:13.191Z,4.56
2018-02-11T09:25:13.648Z,4.60
2018-02-11T09:26:14.028Z,4.56
2018-02-11T09:27:14.435Z,4.68
2018-02-11T09:28:14.894Z,4.63
2018-02-11T09:29:15.285Z,4.60
2018-02-11T09:30:15.699Z,4.73
2018-02-11T09:31:16.126Z,4.73
2018-02-11T09:32:16.547Z,4.71
2018-02-11T09:33:16.998Z,4.70
2018-02-11T09:34:17.418Z,4.74
2018-02-11T09:35:17.804Z,4.80
2018-02-11T09:36:18.272Z,5.04
2018-02-11T09:37:18.644Z,5.10
2018-02-11T09:38:19.080Z,5.07
2018-02-11T09:39:19.494Z,5.18
2018-02-11T09:40:19.913Z,5.30
2018-02-11T09:41:20.339Z,5.33
2018-02-11T09:42:20.775Z,5.38
2018-02-11T09:43:21.187Z,5.44
2018-02-11T09:44:21.602Z,5.26
2018-02-11T09:45:22.063Z,5.28
2018-02-11T09:46:22.458Z,5.46
2018-02-11T09:47:22.874Z,5.32
2018-02-11T09:48:23.317Z,5.53
2018-02-11T09:49:23.716Z,5.65
2018-02-11T09:50:24.158Z,5.73
2018-02-11T09:51:24.566Z,5.83
2018-02-11T09:52:24.988Z,5.82
2018-02-11T09:53:25.456Z,5.83
2018-02-11T09:54:25.856Z,5.71
2018-02-11T09:55:26.279Z,5.89
2018-02-11T09:56:26.696Z,5.84
2018-02-11T09:57:27.105Z,5.91
2018-02-11T09:58:27.534Z,5.90
2018-02-11T09:59:27.953Z,5.86
2018-02-11T10:00:28.375Z,5.83
2018-02-11T10:01:28.912Z,5.72
2018-02-11T10:02:29.211Z,5.71
2018-02-11T10:03:29.647Z,5.72
2018-02-11T10:04:30.069Z,5.62
2018-02-11T10:05:30.518Z,5.54
2018-02-11T10:06:30.929Z,5.57
2018-02-11T10:07:31.347Z,5.43
2018-02-11T10:08:31.778Z,5.62
2018-02-11T10:09:32.185Z,5.44
2018-02-11T10:10:32.606Z,5.51
2018-02-11T10:11:33.040Z,5.36
2018-02-11T10:12:33.470Z,5.33
2018-02-11T10:13:33.878Z,5.46
2018-02-11T10:14:34.298Z,5.39
2018-02-11T10:15:34.722Z,5.57
2018-02-11T10:16:35.150Z,5.62
2018-02-11T10:17:35.574Z,5.50
2018-02-11T10:18:35.990Z,5.62
2018-02-11T10:19:36.410Z,5.57
2018-02-11T10:20:36.832Z,5.66
2018-02-11T10:21:37.258Z,5.80
2018-02-11T10:22:37.677Z,5.83
2018-02-11T10:23:38.109Z,5.84
2018-02-11T10:24:38.571Z,6.07
2018-02-11T10:25:38.957Z,6.02
2018-02-11T10:26:39.365Z,6.12
2018-02-11T10:27:39.803Z,6.33
2018-02-11T10:28:40.230Z,6.35
2018-02-11T10:29:40.640Z,6.22
2018-02-11T10:30:41.062Z,6.17
2018-02-11T10:31:41.491Z,6.22
2018-02-11T10:32:41.910Z,6.14
2018-02-11T10:33:42.348Z,6.28
2018-02-11T10:34:42.761Z,6.38
2018-02-11T10:35:43.216Z,6.44
2018-02-11T10:36:43.606Z,6.63
2018-02-11T10:37:44.038Z,6.41
2018-02-11T10:38:44.475Z,6.44
2018-02-11T10:39:44.889Z,6.54
2018-02-11T10:40:45.307Z,6.44
2018-02-11T10:41:45.732Z,6.64
2018-02-11T10:42:46.175Z,6.41
2018-02-11T10:43:46.584Z,6.41
2018-02-11T10:44:47.000Z,6.56
2018-02-11T10:45:47.430Z,6.62
2018-02-11T10:46:47.852Z,6.51
2018-02-11T10:47:48.280Z,6.60
2018-02-11T10:48:48.704Z,6.74
2018-02-11T10:49:49.141Z,6.52
2018-02-11T10:50:49.551Z,6.45
2018-02-11T10:51:49.984Z,6.51
2018-02-11T10:52:50.498Z,6.33
2018-02-11T10:53:50.837Z,6.51
2018-02-11T10:54:52.301Z,6.77
2018-02-11T10:55:51.681Z,7.06
2018-02-11T10:56:52.098Z,7.21
2018-02-11T10:57:52.524Z,7.38
2018-02-11T10:58:52.955Z,7.00
2018-02-11T10:59:53.406Z,7.20
2018-02-11T11:00:53.827Z,7.17
2018-02-11T11:01:54.231Z,7.18
2018-02-11T11:02:54.655Z,7.23
2018-02-11T11:03:55.083Z,6.99
2018-02-11T11:04:56.400Z,7.05
2018-02-11T11:05:55.958Z,7.02
2018-02-11T11:06:56.351Z,6.92
2018-02-11T11:07:56.801Z,6.96
2018-02-11T11:08:57.244Z,7.02
2018-02-11T11:09:57.639Z,6.84
2018-02-11T11:10:58.052Z,6.81
2018-02-11T11:11:58.477Z,6.67
2018-02-11T11:12:58.898Z,6.38
2018-02-11T11:13:59.342Z,6.42
2018-02-11T11:14:59.749Z,6.41
2018-02-11T11:16:00.174Z,6.38
2018-02-11T11:17:00.594Z,6.27
2018-02-11T11:18:01.046Z,6.26
2018-02-11T11:19:01.449Z,6.11
2018-02-11T11:20:01.879Z,6.08
2018-02-11T11:21:02.295Z,6.07
2018-02-11T11:22:02.724Z,5.86
2018-02-11T11:23:03.170Z,5.90
2018-02-11T11:24:03.564Z,5.82
2018-02-11T11:25:03.986Z,5.83
2018-02-11T11:26:04.410Z,5.80
2018-02-11T11:27:04.859Z,5.82
2018-02-11T11:28:05.257Z,5.57
2018-02-11T11:29:05.682Z,5.53
2018-02-11T11:30:06.098Z,5.48
2018-02-11T11:31:06.525Z,5.41
2018-02-11T11:32:06.947Z,5.44
2018-02-11T11:33:07.381Z,5.29
2018-02-11T11:34:07.802Z,5.18
2018-02-11T11:35:08.219Z,5.35
2018-02-11T11:36:08.635Z,5.28
2018-02-11T11:37:09.055Z,5.41
2018-02-11T11:38:09.478Z,5.30
2018-02-11T11:39:09.902Z,5.36
2018-02-11T11:40:10.326Z,5.47
2018-02-11T11:41:10.747Z,5.46
2018-02-11T11:42:11.167Z,5.44
2018-02-11T11:43:11.592Z,5.33
2018-02-11T11:44:12.012Z,5.36
2018-02-11T11:45:12.436Z,5.28
2018-02-11T11:46:12.859Z,5.32
2018-02-11T11:47:13.279Z,5.29
2018-02-11T11:48:13.702Z,5.25
2018-02-11T11:49:14.127Z,5.28
2018-02-11T11:50:14.547Z,5.28
2018-02-11T11:51:14.966Z,5.35
2018-02-11T11:52:15.392Z,5.41
2018-02-11T11:53:15.809Z,5.30
2018-02-11T11:54:16.232Z,5.26
2018-02-11T11:55:16.658Z,5.33
2018-02-11T11:56:17.081Z,5.33
2018-02-11T11:57:17.496Z,5.41
2018-02-11T11:58:17.918Z,5.50
2018-02-11T11:59:18.343Z,5.51
2018-02-11T12:00:18.767Z,5.47
2018-02-11T12:01:19.187Z,5.53
2018-02-11T12:02:19.606Z,5.46
2018-02-11T12:03:20.028Z,5.46
2018-02-11T12:04:20.453Z,5.57
2018-02-11T12:05:20.874Z,5.65
2018-02-11T12:06:21.298Z,5.61
2018-02-11T12:07:21.719Z,5.47
2018-02-11T12:08:22.143Z,5.48
2018-02-11T12:09:22.575Z,5.43
2018-02-11T12:10:22.988Z,5.25
2018-02-11T12:11:23.419Z,5.44
2018-02-11T12:12:23.830Z,5.38
2018-02-11T12:13:24.256Z,5.41
2018-02-11T12:14:24.675Z,5.47
2018-02-11T12:15:25.103Z,5.38
2018-02-11T12:16:25.519Z,5.38
2018-02-11T12:17:25.941Z,5.32
2018-02-11T12:18:26.368Z,5.43
2018-02-11T12:19:26.787Z,5.35
2018-02-11T12:20:27.209Z,5.48
2018-02-11T12:21:27.630Z,5.48
2018-02-11T12:22:28.053Z,5.46
2018-02-11T12:23:28.480Z,5.44
2018-02-11T12:24:28.896Z,5.35
2018-02-11T12:25:29.317Z,5.35
2018-02-11T12:26:29.740Z,5.35
2018-02-11T12:27:30.166Z,5.30
2018-02-11T12:28:30.594Z,5.28
2018-02-11T12:29:31.011Z,5.30
2018-02-11T12:30:31.424Z,5.44
2018-02-11T12:31:31.856Z,5.25
2018-02-11T12:32:32.272Z,5.33
2018-02-11T12:33:32.693Z,5.28
2018-02-11T12:34:33.129Z,5.15
2018-02-11T12:35:33.539Z,5.10
2018-02-11T12:36:33.987Z,4.93
2018-02-11T12:37:34.374Z,5.00
2018-02-11T12:38:34.801Z,4.90
2018-02-11T12:39:35.228Z,5.00
2018-02-11T12:40:35.650Z,4.99
2018-02-11T12:41:36.067Z,4.84
2018-02-11T12:42:36.543Z,4.78
2018-02-11T12:43:36.904Z,4.75
2018-02-11T12:44:37.363Z,4.90
2018-02-11T12:45:37.756Z,4.75
2018-02-11T12:46:38.176Z,4.77
2018-02-11T12:47:38.597Z,4.77
2018-02-11T12:48:39.018Z,4.70
2018-02-11T12:49:39.441Z,4.58
2018-02-11T12:50:39.869Z,4.45
2018-02-11T12:51:40.320Z,4.52
2018-02-11T12:52:40.721Z,4.49
2018-02-11T12:53:41.152Z,4.52
2018-02-11T12:54:41.635Z,4.41
2018-02-11T12:55:41.959Z,4.42
2018-02-11T12:56:42.392Z,4.30
2018-02-11T12:57:42.815Z,4.38
2018-02-11T12:58:43.232Z,4.37
2018-02-11T12:59:43.660Z,4.37
2018-02-11T13:00:44.104Z,4.32
2018-02-11T13:01:44.507Z,4.34
2018-02-11T13:02:44.913Z,4.31
2018-02-11T13:03:45.335Z,4.31
2018-02-11T13:04:45.758Z,4.17
2018-02-11T13:05:46.180Z,4.20
2018-02-11T13:06:46.594Z,4.13
2018-02-11T13:07:47.024Z,4.06
2018-02-11T13:08:47.437Z,3.99
2018-02-11T13:09:47.862Z,4.10
2018-02-11T13:10:48.277Z,3.96
2018-02-11T13:11:48.702Z,3.86
2018-02-11T13:12:49.125Z,3.95
2018-02-11T13:13:49.541Z,3.91
2018-02-11T13:14:49.973Z,3.88
2018-02-11T13:15:50.380Z,3.96
2018-02-11T13:16:50.801Z,3.96
2018-02-11T13:17:51.220Z,3.98
2018-02-11T13:18:51.639Z,3.87
2018-02-11T13:19:52.060Z,3.95
2018-02-11T13:20:52.481Z,3.92
2018-02-11T13:21:52.903Z,3.95
2018-02-11T13:22:53.328Z,3.96
2018-02-11T13:23:53.742Z,3.91
2018-02-11T13:24:54.173Z,3.92
2018-02-11T13:25:54.588Z,3.95
2018-02-11T13:26:55.006Z,3.91
2018-02-11T13:27:55.428Z,3.87
2018-02-11T13:28:55.843Z,3.87
2018-02-11T13:29:56.262Z,3.81
2018-02-11T13:30:56.687Z,3.81